Time;durP1;ratioP1;P1;durP2;ratioP2;P2;SDS_P1;SDS_P2;PMS_P1;PMS_P2;Temp;Humidity;BMP_temperature;BMP_pressure;BME280_temperature;BME280_humidity;BME280_pressure;Samples;Min_cycle;Max_cycle;Signal;HPM_P1;HPM_P2
2022/05/06 00:02:09;;;;;;;;;18.75;17.25;;;;;-143.93;100.00;62969.28;4992278;28;8858;-67
2022/05/06 00:04:35;;;;;;;;;19.50;18.00;;;;;-143.93;100.00;62969.28;5000441;28;8849;-66
2022/05/06 00:07:00;;;;;;;;;18.75;16.75;;;;;-143.93;100.00;62969.28;4998869;28;8831;-66
2022/05/06 00:09:26;;;;;;;;;19.00;18.25;;;;;-143.93;100.00;62969.28;4995397;28;8941;-67
2022/05/06 00:11:51;;;;;;;;;19.25;17.75;;;;;-143.93;100.00;62969.28;5003252;28;8913;-66
2022/05/06 00:14:17;;;;;;;;;22.75;18.75;;;;;-143.93;100.00;62969.28;4997728;28;8840;-66
2022/05/06 00:16:42;;;;;;;;;20.00;19.25;;;;;-143.93;100.00;62969.28;5008482;28;8831;-66
2022/05/06 00:19:08;;;;;;;;;19.25;17.75;;;;;-143.93;100.00;62969.28;4998673;28;12751;-66
2022/05/06 00:21:33;;;;;;;;;27.75;20.50;;;;;-143.93;100.00;62969.28;5001703;28;8801;-66
2022/05/06 00:23:59;;;;;;;;;21.50;17.50;;;;;-143.93;100.00;62969.28;5016292;28;8834;-66
2022/05/06 00:26:24;;;;;;;;;20.00;18.00;;;;;-143.93;100.00;62969.28;4994881;28;8817;-68
2022/05/06 00:28:49;;;;;;;;;22.50;20.00;;;;;-143.93;100.00;62969.28;5000401;28;8813;-66
2022/05/06 00:31:15;;;;;;;;;23.50;20.75;;;;;-143.93;100.00;62969.28;4997452;28;8926;-66
2022/05/06 00:33:40;;;;;;;;;25.75;22.50;;;;;-143.93;100.00;62969.28;4990396;28;9485;-66
2022/05/06 00:36:05;;;;;;;;;19.75;16.00;;;;;-143.93;100.00;62969.28;4988984;28;8835;-66
2022/05/06 00:38:31;;;;;;;;;29.75;23.25;;;;;-143.93;100.00;62969.28;5004564;27;10931;-66
2022/05/06 00:40:57;;;;;;;;;25.00;19.00;;;;;-143.93;100.00;62969.28;4992396;28;8809;-66
2022/05/06 00:43:25;;;;;;;;;27.25;23.25;;;;;-143.93;100.00;62969.28;4990144;28;9586;-66
2022/05/06 00:45:52;;;;;;;;;26.00;19.00;;;;;-143.93;100.00;62969.28;4991973;28;9480;-66
2022/05/06 00:48:20;;;;;;;;;26.00;21.25;;;;;-143.93;100.00;62969.28;5000834;28;8801;-66
2022/05/06 00:50:46;;;;;;;;;23.50;20.25;;;;;-143.93;100.00;62969.28;5000100;28;8825;-67
2022/05/06 00:53:13;;;;;;;;;27.75;22.75;;;;;-143.93;100.00;62969.28;5004870;28;8900;-67
2022/05/06 00:55:39;;;;;;;;;26.00;22.00;;;;;-143.93;100.00;62969.28;5001951;27;8818;-67
2022/05/06 00:58:06;;;;;;;;;28.00;21.25;;;;;-143.93;100.00;62969.28;5000269;27;8836;-67
2022/05/06 01:00:31;;;;;;;;;25.00;18.50;;;;;-143.93;100.00;62969.28;5036456;28;8932;-67
2022/05/06 01:02:57;;;;;;;;;25.75;20.50;;;;;-143.93;100.00;62969.28;5007484;28;8951;-67
2022/05/06 01:05:22;;;;;;;;;28.25;24.75;;;;;-143.93;100.00;62969.28;5005193;28;18459;-67
2022/05/06 01:07:49;;;;;;;;;27.75;22.50;;;;;-143.93;100.00;62969.28;4996757;28;8850;-67
2022/05/06 01:10:17;;;;;;;;;28.75;24.75;;;;;-143.93;100.00;62969.28;4995918;28;8901;-67
2022/05/06 01:12:42;;;;;;;;;28.25;21.25;;;;;-143.93;100.00;62969.28;4996626;28;8824;-67
2022/05/06 01:15:20;;;;;;;;;26.67;22.33;;;;;-143.93;100.00;62969.28;5004212;28;26871;-67
2022/05/06 01:17:48;;;;;;;;;24.50;21.25;;;;;-143.93;100.00;62969.28;4990800;28;9263;-67
2022/05/06 01:20:17;;;;;;;;;26.25;25.50;;;;;-143.93;100.00;62969.28;4998312;28;8892;-67
2022/05/06 01:22:48;;;;;;;;;31.00;26.25;;;;;-143.93;100.00;62969.28;5001362;28;8839;-67
2022/05/06 01:25:15;;;;;;;;;28.25;22.50;;;;;-143.93;100.00;62969.28;5002202;28;8812;-67
2022/05/06 01:28:03;;;;;;;;;36.00;26.00;;;;;-143.93;100.00;62969.28;5003636;28;8813;-67
2022/05/06 01:30:35;;;;;;;;;35.50;27.25;;;;;-143.93;100.00;62969.28;5017670;28;8802;-67
2022/05/06 01:33:06;;;;;;;;;29.50;24.25;;;;;-143.93;100.00;62969.28;4998105;28;8798;-67
2022/05/06 01:35:40;;;;;;;;;28.75;25.00;;;;;-143.93;100.00;62969.28;5018576;27;8793;-66
2022/05/06 01:38:06;;;;;;;;;29.25;25.50;;;;;-143.93;100.00;62969.28;4996998;28;8830;-66
2022/05/06 01:40:42;;;;;;;;;34.50;24.25;;;;;-143.93;100.00;62969.28;5000154;28;8809;-66
2022/05/06 01:43:11;;;;;;;;;28.25;20.25;;;;;-143.93;100.00;62969.28;5003333;28;8796;-66
2022/05/06 01:45:39;;;;;;;;;30.25;26.50;;;;;-143.93;100.00;62969.28;4998308;28;8835;-66
2022/05/06 01:48:06;;;;;;;;;29.75;24.25;;;;;-143.93;100.00;62969.28;4993015;27;8808;-66
2022/05/06 01:50:34;;;;;;;;;35.75;30.25;;;;;-143.93;100.00;62969.28;5003811;28;8797;-66
2022/05/06 01:53:01;;;;;;;;;27.00;22.75;;;;;-143.93;100.00;62969.28;4995849;28;8819;-66
2022/05/06 01:55:26;;;;;;;;;25.75;22.50;;;;;-143.93;100.00;62969.28;4994154;28;9569;-66
2022/05/06 01:57:52;;;;;;;;;33.75;26.50;;;;;-143.93;100.00;62969.28;4994547;28;8861;-66
2022/05/06 02:00:17;;;;;;;;;30.50;24.75;;;;;-143.93;100.00;62969.28;5003815;28;8899;-66
2022/05/06 02:02:42;;;;;;;;;30.00;26.75;;;;;-143.93;100.00;62969.28;4999608;28;8808;-66
2022/05/06 02:05:17;;;;;;;;;28.75;24.50;;;;;-143.93;100.00;62969.28;5006774;28;8966;-66
2022/05/06 02:07:43;;;;;;;;;33.25;30.00;;;;;-143.93;100.00;62969.28;4999254;28;9736;-66
2022/05/06 02:10:09;;;;;;;;;32.25;26.50;;;;;-143.93;100.00;62969.28;5003216;28;8802;-66
2022/05/06 02:12:34;;;;;;;;;33.25;25.50;;;;;-143.93;100.00;62969.28;5003908;28;8828;-66
2022/05/06 02:15:00;;;;;;;;;34.50;24.50;;;;;-143.93;100.00;62969.28;4990181;28;8825;-66
2022/05/06 02:17:25;;;;;;;;;23.75;23.50;;;;;-143.93;100.00;62969.28;5001776;27;8846;-67
2022/05/06 02:19:50;;;;;;;;;27.50;24.00;;;;;-143.93;100.00;62969.28;4995212;28;10373;-66
2022/05/06 02:22:16;;;;;;;;;34.25;29.50;;;;;-143.93;100.00;62969.28;4998347;28;8905;-67
2022/05/06 02:24:42;;;;;;;;;32.25;24.00;;;;;-143.93;100.00;62969.28;4995522;28;9040;-67
2022/05/06 02:27:12;;;;;;;;;31.25;25.25;;;;;-143.93;100.00;62969.28;4991250;28;8827;-67
2022/05/06 02:29:37;;;;;;;;;30.25;25.50;;;;;-143.93;100.00;62969.28;5003359;28;8820;-67
2022/05/06 02:34:47;;;;;;;;;35.50;30.75;;;;;-143.93;100.00;62969.28;4998869;28;8815;-67
2022/05/06 02:37:12;;;;;;;;;31.75;23.00;;;;;-143.93;100.00;62969.28;4994550;28;8835;-67
2022/05/06 02:39:38;;;;;;;;;33.75;26.00;;;;;-143.93;100.00;62969.28;4995451;28;25548;-67
2022/05/06 02:42:03;;;;;;;;;32.75;28.00;;;;;-143.93;100.00;62969.28;5006751;28;13718;-67
2022/05/06 02:44:29;;;;;;;;;33.50;28.00;;;;;-143.93;100.00;62969.28;5007954;28;8817;-67
2022/05/06 02:46:54;;;;;;;;;33.00;28.67;;;;;-143.93;100.00;62969.28;5000252;28;18521;-67
2022/05/06 02:49:19;;;;;;;;;31.25;25.00;;;;;-143.93;100.00;62969.28;5003007;28;12969;-67
2022/05/06 02:51:45;;;;;;;;;32.00;25.00;;;;;-143.93;100.00;62969.28;4992407;28;8844;-67
2022/05/06 02:54:10;;;;;;;;;34.25;22.75;;;;;-143.93;100.00;62969.28;4998902;28;10442;-67
2022/05/06 02:56:35;;;;;;;;;34.00;29.25;;;;;-143.93;100.00;62969.28;4993457;28;8804;-67
2022/05/06 02:59:01;;;;;;;;;32.00;27.00;;;;;-143.93;100.00;62969.28;5002669;28;8833;-67
2022/05/06 03:01:28;;;;;;;;;31.00;25.50;;;;;-143.93;100.00;62969.28;4997311;28;8800;-68
2022/05/06 03:03:53;;;;;;;;;30.25;25.75;;;;;-143.93;100.00;62969.28;5000277;28;8889;-67
2022/05/06 03:06:19;;;;;;;;;33.00;27.75;;;;;-143.93;100.00;62969.28;4993394;28;8841;-67
2022/05/06 03:08:44;;;;;;;;;39.75;27.00;;;;;-143.93;100.00;62969.28;4993164;28;8827;-67
2022/05/06 03:11:09;;;;;;;;;38.50;30.00;;;;;-143.93;100.00;62969.28;4998283;28;8878;-67
2022/05/06 03:13:35;;;;;;;;;38.50;28.00;;;;;-143.93;100.00;62969.28;4994988;28;9610;-67
2022/05/06 03:16:00;;;;;;;;;35.25;28.75;;;;;-143.93;100.00;62969.28;4990388;28;8916;-67
2022/05/06 03:18:26;;;;;;;;;36.75;24.75;;;;;-143.93;100.00;62969.28;4995986;28;12286;-67
2022/05/06 03:20:51;;;;;;;;;34.75;31.00;;;;;-143.93;100.00;62969.28;5003241;28;8922;-67
2022/05/06 03:23:17;;;;;;;;;33.50;27.25;;;;;-143.93;100.00;62969.28;5003483;28;9408;-67
2022/05/06 03:25:42;;;;;;;;;32.25;28.25;;;;;-143.93;100.00;62969.28;4998936;28;8915;-67
2022/05/06 03:28:07;;;;;;;;;36.25;30.50;;;;;-143.93;100.00;62969.28;4998383;28;8831;-67
2022/05/06 03:30:39;;;;;;;;;37.75;27.50;;;;;-143.93;100.00;62969.28;4998524;28;8998;-67
2022/05/06 03:33:09;;;;;;;;;36.75;29.25;;;;;-143.93;100.00;62969.28;5004315;28;8836;-67
2022/05/06 03:35:36;;;;;;;;;36.50;30.00;;;;;-143.93;100.00;62969.28;4998956;28;8820;-67
2022/05/06 03:38:01;;;;;;;;;33.25;26.75;;;;;-143.93;100.00;62969.28;5000539;28;8831;-67
2022/05/06 03:40:27;;;;;;;;;29.75;22.25;;;;;-143.93;100.00;62969.28;4999738;28;8821;-67
2022/05/06 03:42:52;;;;;;;;;29.25;27.50;;;;;-143.93;100.00;62969.28;4999433;28;9036;-67
2022/05/06 03:45:18;;;;;;;;;36.50;29.75;;;;;-143.93;100.00;62969.28;4996240;27;8849;-67
2022/05/06 03:47:43;;;;;;;;;37.50;30.50;;;;;-143.93;100.00;62969.28;4991303;28;8819;-67
2022/05/06 03:52:53;;;;;;;;;36.75;28.00;;;;;-143.93;100.00;62969.28;4999263;28;9596;-68
2022/05/06 03:55:20;;;;;;;;;36.50;31.50;;;;;-143.93;100.00;62969.28;4998845;28;8870;-67
2022/05/06 03:57:46;;;;;;;;;34.00;27.00;;;;;-143.93;100.00;62969.28;4992937;28;8801;-67
2022/05/06 04:00:14;;;;;;;;;34.00;28.25;;;;;-143.93;100.00;62969.28;4994009;28;8830;-67
2022/05/06 04:02:40;;;;;;;;;36.50;31.00;;;;;-143.93;100.00;62969.28;5029744;28;8914;-67
2022/05/06 04:05:06;;;;;;;;;41.00;28.50;;;;;-143.93;100.00;62969.28;4991872;28;9016;-67
2022/05/06 04:07:32;;;;;;;;;39.75;32.00;;;;;-143.93;100.00;62969.28;4992513;28;8828;-67
2022/05/06 04:09:57;;;;;;;;;37.25;29.25;;;;;-143.93;100.00;62969.28;4993485;28;8804;-67
2022/05/06 04:12:23;;;;;;;;;37.33;30.33;;;;;-143.93;100.00;62969.28;4998425;28;28936;-67
2022/05/06 04:14:52;;;;;;;;;34.50;29.25;;;;;-143.93;100.00;62969.28;5004108;28;9853;-67
2022/05/06 04:17:20;;;;;;;;;40.50;29.75;;;;;-143.93;100.00;62969.28;4997094;28;8800;-67
2022/05/06 04:25:14;;;;;;;;;37.75;24.75;;;;;-143.93;100.00;62969.28;4991502;28;8831;-67
2022/05/06 04:27:40;;;;;;;;;36.75;27.50;;;;;-143.93;100.00;62969.28;4992474;28;8921;-67
2022/05/06 04:30:06;;;;;;;;;33.25;29.00;;;;;-143.93;100.00;62969.28;4989947;28;8809;-67
2022/05/06 04:32:32;;;;;;;;;36.75;31.50;;;;;-143.93;100.00;62969.28;5000229;28;8804;-67
2022/05/06 04:34:57;;;;;;;;;35.33;28.00;;;;;-143.93;100.00;62969.28;5001686;28;18837;-67
2022/05/06 04:37:22;;;;;;;;;31.00;26.75;;;;;-143.93;100.00;62969.28;5004037;28;19811;-67
2022/05/06 04:39:48;;;;;;;;;30.75;24.25;;;;;-143.93;100.00;62969.28;5002809;28;8828;-67
2022/05/06 04:42:13;;;;;;;;;36.25;32.50;;;;;-143.93;100.00;62969.28;4992294;28;12604;-67
2022/05/06 04:44:38;;;;;;;;;35.00;28.75;;;;;-143.93;100.00;62969.28;4998035;28;8843;-67
2022/05/06 04:47:04;;;;;;;;;33.25;26.00;;;;;-143.93;100.00;62969.28;5002497;28;15665;-67
2022/05/06 04:49:29;;;;;;;;;35.25;29.25;;;;;-143.93;100.00;62969.28;4994894;28;8920;-67
2022/05/06 04:51:54;;;;;;;;;43.25;32.50;;;;;-143.93;100.00;62969.28;4994083;28;9555;-67
2022/05/06 04:54:20;;;;;;;;;40.00;34.33;;;;;-143.93;100.00;62969.28;4992584;28;20002;-68
2022/05/06 04:56:45;;;;;;;;;35.50;30.25;;;;;-143.93;100.00;62969.28;4994323;28;9310;-68
2022/05/06 04:59:10;;;;;;;;;39.33;33.00;;;;;-143.93;100.00;62969.28;5005534;28;18784;-67
2022/05/06 05:01:36;;;;;;;;;33.25;27.25;;;;;-143.93;100.00;62969.28;4996114;28;9224;-67
2022/05/06 05:04:01;;;;;;;;;36.25;33.00;;;;;-143.93;100.00;62969.28;5017187;28;8923;-67
2022/05/06 05:06:26;;;;;;;;;33.50;27.75;;;;;-143.93;100.00;62969.28;5022729;28;8853;-67
2022/05/06 05:08:51;;;;;;;;;39.00;29.25;;;;;-143.93;100.00;62969.28;5006609;28;14305;-67
2022/05/06 05:11:17;;;;;;;;;35.25;30.25;;;;;-143.93;100.00;62969.28;4993445;28;8851;-67
2022/05/06 05:13:43;;;;;;;;;37.75;34.00;;;;;-143.93;100.00;62969.28;5026801;27;8930;-67
2022/05/06 05:16:08;;;;;;;;;39.00;32.75;;;;;-143.93;100.00;62969.28;5050248;27;8818;-67
2022/05/06 05:18:35;;;;;;;;;36.50;30.50;;;;;-143.93;100.00;62969.28;5003099;28;8922;-67
2022/05/06 05:21:01;;;;;;;;;34.25;29.00;;;;;-143.93;100.00;62969.28;5010856;28;8839;-67
2022/05/06 05:23:26;;;;;;;;;35.00;30.25;;;;;-143.93;100.00;62969.28;4994067;28;8832;-66
2022/05/06 05:25:52;;;;;;;;;38.50;30.50;;;;;-143.93;100.00;62969.28;4998282;28;8843;-66
2022/05/06 05:28:19;;;;;;;;;44.00;33.75;;;;;-143.93;100.00;62969.28;5010333;28;8820;-66
2022/05/06 05:30:44;;;;;;;;;42.25;33.50;;;;;-143.93;100.00;62969.28;4994997;28;8804;-66
2022/05/06 05:33:09;;;;;;;;;40.75;33.25;;;;;-143.93;100.00;62969.28;4998275;28;8936;-66
2022/05/06 05:35:36;;;;;;;;;37.75;30.25;;;;;-143.93;100.00;62969.28;5009777;28;9583;-66
2022/05/06 05:38:02;;;;;;;;;41.75;33.25;;;;;-143.93;100.00;62969.28;5009898;28;8818;-66
2022/05/06 05:40:28;;;;;;;;;41.50;34.75;;;;;-143.93;100.00;62969.28;5001220;28;8808;-66
2022/05/06 05:42:53;;;;;;;;;37.25;31.50;;;;;-143.93;100.00;62969.28;5010862;28;8820;-66
2022/05/06 05:48:20;;;;;;;;;38.25;29.50;;;;;-143.93;100.00;62969.28;4991796;28;9528;-66
2022/05/06 05:50:46;;;;;;;;;32.00;27.75;;;;;-143.93;100.00;62969.28;5021459;28;9558;-66
2022/05/06 05:53:11;;;;;;;;;41.50;33.00;;;;;-143.93;100.00;62969.28;4999756;28;8793;-66
2022/05/06 05:55:37;;;;;;;;;41.50;33.00;;;;;-143.93;100.00;62969.28;4997838;28;9669;-66
2022/05/06 05:58:02;;;;;;;;;38.00;31.50;;;;;-143.93;100.00;62969.28;4996513;28;13136;-66
2022/05/06 06:00:28;;;;;;;;;36.00;33.00;;;;;-143.93;100.00;62969.28;5021586;28;8837;-66
2022/05/06 06:02:54;;;;;;;;;39.25;27.25;;;;;-143.93;100.00;62969.28;5005767;28;8855;-66
2022/05/06 06:05:20;;;;;;;;;40.75;31.50;;;;;-143.93;100.00;62969.28;4993829;28;8800;-66
2022/05/06 06:07:45;;;;;;;;;38.50;34.00;;;;;-143.93;100.00;62969.28;4994291;28;8813;-66
2022/05/06 06:10:10;;;;;;;;;45.00;32.75;;;;;-143.93;100.00;62969.28;5001382;28;8817;-66
2022/05/06 06:12:36;;;;;;;;;38.50;30.25;;;;;-143.93;100.00;62969.28;4997270;28;9616;-66
2022/05/06 06:15:02;;;;;;;;;42.00;33.25;;;;;-143.93;100.00;62969.28;5005856;27;8815;-66
2022/05/06 06:17:28;;;;;;;;;37.25;33.25;;;;;-143.93;100.00;62969.28;5007902;28;8899;-66
2022/05/06 06:19:54;;;;;;;;;42.00;30.50;;;;;-143.93;100.00;62969.28;5000282;28;8916;-67
2022/05/06 06:22:19;;;;;;;;;45.50;34.50;;;;;-143.93;100.00;62969.28;5009079;28;8971;-67
2022/05/06 06:24:44;;;;;;;;;45.00;32.50;;;;;-143.93;100.00;62969.28;5007968;28;11081;-67
2022/05/06 06:27:10;;;;;;;;;39.50;32.50;;;;;-143.93;100.00;62969.28;5025324;28;8813;-66
2022/05/06 06:29:35;;;;;;;;;41.75;34.50;;;;;-143.93;100.00;62969.28;5001760;28;8803;-66
2022/05/06 06:32:02;;;;;;;;;46.25;36.00;;;;;-143.93;100.00;62969.28;5009822;28;8817;-66
2022/05/06 06:34:27;;;;;;;;;40.75;33.25;;;;;-143.93;100.00;62969.28;5012235;28;8828;-66
2022/05/06 06:36:52;;;;;;;;;45.50;34.75;;;;;-143.93;100.00;62969.28;5005675;28;8883;-66
2022/05/06 06:39:17;;;;;;;;;40.50;31.75;;;;;-143.93;100.00;62969.28;5011023;28;8829;-66
2022/05/06 06:41:43;;;;;;;;;41.75;32.25;;;;;-143.93;100.00;62969.28;5007009;28;8830;-66
2022/05/06 06:44:08;;;;;;;;;42.75;34.75;;;;;-143.93;100.00;62969.28;4996807;28;8812;-66
2022/05/06 06:46:33;;;;;;;;;36.75;33.00;;;;;-143.93;100.00;62969.28;5018307;28;9575;-66
2022/05/06 06:48:59;;;;;;;;;41.00;33.00;;;;;-143.93;100.00;62969.28;5009049;28;8827;-66
2022/05/06 06:51:24;;;;;;;;;45.75;35.00;;;;;-143.93;100.00;62969.28;5013131;28;8855;-66
2022/05/06 06:53:53;;;;;;;;;41.75;34.00;;;;;-143.93;100.00;62969.28;5039626;28;9616;-66
2022/05/06 06:56:18;;;;;;;;;46.25;33.75;;;;;-143.93;100.00;62969.28;5006086;28;9576;-67
2022/05/06 06:58:44;;;;;;;;;45.00;33.75;;;;;-143.93;100.00;62969.28;4995734;28;8853;-67
2022/05/06 07:01:09;;;;;;;;;41.50;32.50;;;;;-143.93;100.00;62969.28;4996907;28;8827;-67
2022/05/06 07:03:34;;;;;;;;;38.25;31.00;;;;;-143.93;100.00;62969.28;5002335;28;9583;-66
2022/05/06 07:14:35;;;;;;;;;32.75;29.00;;;;;-143.93;100.00;62969.28;5000460;28;8821;-66
2022/05/06 07:17:02;;;;;;;;;31.75;28.75;;;;;-143.93;100.00;62969.28;5001760;28;8825;-66
2022/05/06 07:19:28;;;;;;;;;36.00;28.25;;;;;-143.93;100.00;62969.28;5086173;27;8813;-66
2022/05/06 07:21:54;;;;;;;;;32.00;25.75;;;;;-143.93;100.00;62969.28;5002131;28;8855;-66
2022/05/06 07:24:20;;;;;;;;;31.25;26.00;;;;;-143.93;100.00;62969.28;5002458;28;8866;-66
2022/05/06 07:26:49;;;;;;;;;37.25;28.50;;;;;-143.93;100.00;62969.28;5005293;28;8846;-66
2022/05/06 07:29:14;;;;;;;;;35.50;28.75;;;;;-143.93;100.00;62969.28;5007778;28;8809;-66
2022/05/06 07:31:41;;;;;;;;;31.50;27.00;;;;;-143.93;100.00;62969.28;5008649;28;8822;-66
2022/05/06 07:34:07;;;;;;;;;33.50;27.75;;;;;-143.93;100.00;62969.28;5008343;28;8833;-66
2022/05/06 07:36:33;;;;;;;;;34.50;27.00;;;;;-143.93;100.00;62969.28;5008994;28;8839;-67
2022/05/06 07:38:58;;;;;;;;;33.25;25.50;;;;;-143.93;100.00;62969.28;5006595;28;8811;-66
2022/05/06 07:41:24;;;;;;;;;35.50;29.75;;;;;-143.93;100.00;62969.28;5027701;27;8824;-66
2022/05/06 07:43:49;;;;;;;;;28.00;24.25;;;;;-143.93;100.00;62969.28;5002130;28;8810;-66
2022/05/06 07:46:14;;;;;;;;;33.00;27.25;;;;;-143.93;100.00;62969.28;5004904;28;8853;-66
2022/05/06 07:48:40;;;;;;;;;34.25;28.25;;;;;-143.93;100.00;62969.28;5007264;28;8859;-66
2022/05/06 07:51:05;;;;;;;;;36.25;31.00;;;;;-143.93;100.00;62969.28;5017363;28;9004;-67
2022/05/06 07:53:30;;;;;;;;;32.75;24.75;;;;;-143.93;100.00;62969.28;5015346;28;8830;-66
2022/05/06 07:55:56;;;;;;;;;33.75;27.75;;;;;-143.93;100.00;62969.28;5001846;28;10198;-66
2022/05/06 07:58:21;;;;;;;;;28.75;25.25;;;;;-143.93;100.00;62969.28;5007003;28;8902;-67
2022/05/06 08:00:47;;;;;;;;;27.25;22.25;;;;;-143.93;100.00;62969.28;5001300;28;8855;-67
2022/05/06 08:05:59;;;;;;;;;30.50;23.75;;;;;-143.93;100.00;62969.28;4996102;28;8798;-66
2022/05/06 08:08:29;;;;;;;;;25.50;22.00;;;;;-143.93;100.00;62969.28;5001801;28;8831;-67
2022/05/06 08:10:55;;;;;;;;;29.00;24.50;;;;;-143.93;100.00;62969.28;5011654;27;9542;-66
2022/05/06 08:13:20;;;;;;;;;28.00;25.00;;;;;-143.93;100.00;62969.28;5005772;28;8827;-66
2022/05/06 08:15:47;;;;;;;;;27.50;23.25;;;;;-143.93;100.00;62969.28;5000115;28;8839;-67
2022/05/06 08:18:12;;;;;;;;;25.25;23.25;;;;;-143.93;100.00;62969.28;4989602;28;8843;-67
2022/05/06 08:20:39;;;;;;;;;28.75;25.50;;;;;-143.93;100.00;62969.28;5000277;28;8820;-66
2022/05/06 08:23:04;;;;;;;;;28.75;23.25;;;;;-143.93;100.00;62969.28;5002381;28;8963;-67
2022/05/06 08:25:29;;;;;;;;;62.25;48.25;;;;;-143.93;100.00;62969.28;4993808;28;9670;-67
2022/05/06 08:27:55;;;;;;;;;25.75;23.75;;;;;-143.93;100.00;62969.28;5003017;28;8839;-67
2022/05/06 08:30:20;;;;;;;;;27.25;21.50;;;;;-143.93;100.00;62969.28;5003089;28;19025;-67
2022/05/06 08:32:45;;;;;;;;;24.50;22.25;;;;;-143.93;100.00;62969.28;5001385;28;8867;-67
2022/05/06 08:35:11;;;;;;;;;23.00;20.25;;;;;-143.93;100.00;62969.28;5001286;28;8821;-67
2022/05/06 08:37:43;;;;;;;;;27.00;19.00;;;;;-143.93;100.00;62969.28;5002585;28;11851;-67
2022/05/06 08:40:17;;;;;;;;;24.50;23.75;;;;;-143.93;100.00;62969.28;5000617;28;8866;-67
2022/05/06 08:42:42;;;;;;;;;19.75;17.75;;;;;-143.93;100.00;62969.28;5003476;28;8844;-67
2022/05/06 08:50:56;;;;;;;;;17.00;15.00;;;;;-143.93;100.00;62969.28;5005561;28;8805;-67
2022/05/06 08:53:26;;;;;;;;;14.25;13.50;;;;;-143.93;100.00;62969.28;4991816;28;8893;-67
2022/05/06 08:55:54;;;;;;;;;19.25;15.00;;;;;-143.93;100.00;62969.28;5000492;28;8828;-67
2022/05/06 08:58:21;;;;;;;;;20.25;16.75;;;;;-143.93;100.00;62969.28;5001664;28;8880;-67
2022/05/06 09:00:46;;;;;;;;;15.25;15.00;;;;;-143.93;100.00;62969.28;4998817;28;8824;-67
2022/05/06 09:03:17;;;;;;;;;17.50;14.75;;;;;-143.93;100.00;62969.28;4989670;28;8852;-67
2022/05/06 09:05:50;;;;;;;;;15.75;14.00;;;;;-143.93;100.00;62969.28;4989898;27;8839;-67
2022/05/06 09:08:15;;;;;;;;;12.25;11.25;;;;;-143.93;100.00;62969.28;5006601;28;8896;-67
2022/05/06 09:10:40;;;;;;;;;10.50;9.50;;;;;-143.93;100.00;62969.28;4989850;28;8835;-67
2022/05/06 09:13:06;;;;;;;;;13.50;13.00;;;;;-143.93;100.00;62969.28;4993402;28;8837;-69
2022/05/06 09:18:22;;;;;;;;;13.00;12.75;;;;;-143.93;100.00;62969.28;4988101;28;8812;-67
2022/05/06 09:20:49;;;;;;;;;13.25;10.25;;;;;-143.93;100.00;62969.28;5000506;28;8827;-67
2022/05/06 09:23:20;;;;;;;;;7.00;5.25;;;;;-143.93;100.00;62969.28;5004464;28;8790;-68
2022/05/06 09:25:49;;;;;;;;;9.00;8.00;;;;;-143.93;100.00;62969.28;5001388;28;8818;-67
2022/05/06 09:28:26;;;;;;;;;7.75;7.50;;;;;-143.93;100.00;62969.28;5012272;28;8801;-68
2022/05/06 09:31:08;;;;;;;;;9.00;8.00;;;;;-143.93;100.00;62969.28;5043991;27;8941;-69
2022/05/06 09:33:41;;;;;;;;;6.00;6.00;;;;;-143.93;100.00;62969.28;5003336;28;9753;-68
2022/05/06 09:36:26;;;;;;;;;9.00;9.00;;;;;-143.93;100.00;62969.28;5005424;28;8821;-66
2022/05/06 09:39:07;;;;;;;;;8.00;8.00;;;;;-143.93;100.00;62969.28;5006237;28;8812;-65
2022/05/06 09:41:33;;;;;;;;;12.50;10.25;;;;;-143.93;100.00;62969.28;4999891;28;8812;-65
2022/05/06 09:44:03;;;;;;;;;25.25;23.25;;;;;-143.93;100.00;62969.28;5000531;28;8823;-66
2022/05/06 09:46:29;;;;;;;;;8.25;8.25;;;;;-143.93;100.00;62969.28;4999366;28;9600;-67
2022/05/06 09:48:59;;;;;;;;;7.25;6.50;;;;;-143.93;100.00;62969.28;5002684;28;8816;-67
2022/05/06 09:51:29;;;;;;;;;8.50;6.00;;;;;-143.93;100.00;62969.28;5005840;28;8844;-68
2022/05/06 09:53:55;;;;;;;;;6.00;6.00;;;;;-143.93;100.00;62969.28;5008905;28;8793;-67
2022/05/06 09:56:21;;;;;;;;;4.25;4.25;;;;;-143.93;100.00;62969.28;5010550;28;8812;-67
2022/05/06 09:58:46;;;;;;;;;5.00;5.00;;;;;-143.93;100.00;62969.28;5004047;28;9554;-67
2022/05/06 10:01:15;;;;;;;;;7.00;7.00;;;;;-143.93;100.00;62969.28;5007787;28;8819;-66
2022/05/06 10:03:41;;;;;;;;;12.25;12.25;;;;;-143.93;100.00;62969.28;5004690;28;8814;-66
2022/05/06 10:06:09;;;;;;;;;8.50;7.25;;;;;-143.93;100.00;62969.28;4991606;28;8852;-66
2022/05/06 10:08:49;;;;;;;;;9.00;6.25;;;;;-143.93;100.00;62969.28;5016162;28;8793;-66
2022/05/06 10:11:21;;;;;;;;;6.25;6.00;;;;;-143.93;100.00;62969.28;5007852;28;8801;-66
2022/05/06 10:13:47;;;;;;;;;7.00;7.00;;;;;-143.93;100.00;62969.28;4999894;28;8835;-66
2022/05/06 10:16:12;;;;;;;;;7.00;7.00;;;;;-143.93;100.00;62969.28;4999424;28;8799;-66
2022/05/06 10:18:40;;;;;;;;;5.25;5.00;;;;;-143.93;100.00;62969.28;4992418;28;8824;-66
2022/05/06 10:21:07;;;;;;;;;6.75;6.75;;;;;-143.93;100.00;62969.28;5005212;28;8804;-66
2022/05/06 10:23:51;;;;;;;;;6.00;5.00;;;;;-143.93;100.00;62969.28;4992383;28;8894;-65
2022/05/06 10:26:34;;;;;;;;;7.50;6.00;;;;;-143.93;100.00;62969.28;5004250;28;8841;-66
2022/05/06 10:34:31;;;;;;;;;7.25;6.25;;;;;-143.93;100.00;62969.28;4999410;28;8805;-66
2022/05/06 10:37:02;;;;;;;;;5.50;5.50;;;;;-143.93;100.00;62969.28;5003189;28;8862;-66
2022/05/06 10:39:33;;;;;;;;;7.50;7.00;;;;;-143.93;100.00;62969.28;5002829;28;8799;-66
2022/05/06 10:42:01;;;;;;;;;8.25;8.25;;;;;-143.93;100.00;62969.28;4991173;28;8808;-65
2022/05/06 10:44:38;;;;;;;;;11.25;10.00;;;;;-143.93;100.00;62969.28;5004250;28;8947;-66
2022/05/06 10:47:41;;;;;;;;;7.75;7.00;;;;;-143.93;100.00;62969.28;5010836;28;8809;-65
2022/05/06 10:50:19;;;;;;;;;11.00;9.25;;;;;-143.93;100.00;62969.28;4997353;28;8827;-66
2022/05/06 10:52:48;;;;;;;;;5.50;5.50;;;;;-143.93;100.00;62969.28;4991689;28;8800;-66
2022/05/06 10:55:15;;;;;;;;;9.00;9.00;;;;;-143.93;100.00;62969.28;4991872;28;8843;-67
2022/05/06 10:57:51;;;;;;;;;11.75;9.00;;;;;-143.93;100.00;62969.28;4991383;28;8817;-66
2022/05/06 11:00:18;;;;;;;;;17.00;15.75;;;;;-143.93;100.00;62969.28;4988829;28;9688;-67
2022/05/06 11:02:44;;;;;;;;;13.00;11.50;;;;;-143.93;100.00;62969.28;4987208;28;9606;-66
2022/05/06 11:05:16;;;;;;;;;11.25;8.25;;;;;-143.93;100.00;62969.28;5000562;28;8817;-66
2022/05/06 11:07:44;;;;;;;;;14.00;11.50;;;;;-143.93;100.00;62969.28;4993804;28;8804;-66
2022/05/06 11:10:25;;;;;;;;;45.00;36.00;;;;;-143.93;100.00;62969.28;4998708;28;8805;-67
2022/05/06 11:12:53;;;;;;;;;14.75;13.25;;;;;-143.93;100.00;62969.28;4998316;28;8820;-67
2022/05/06 11:15:32;;;;;;;;;27.00;23.50;;;;;-143.93;100.00;62969.28;4991488;28;8812;-66
2022/05/06 11:18:04;;;;;;;;;32.00;30.50;;;;;-143.93;100.00;62969.28;4987492;28;8820;-67
2022/05/06 11:20:32;;;;;;;;;10.25;9.25;;;;;-143.93;100.00;62969.28;5001435;28;8812;-66
2022/05/06 11:23:03;;;;;;;;;12.00;11.25;;;;;-143.93;100.00;62969.28;4988406;28;8843;-66
2022/05/06 11:25:42;;;;;;;;;10.25;10.25;;;;;-143.93;100.00;62969.28;4995673;28;8810;-67
2022/05/06 11:28:14;;;;;;;;;10.25;9.00;;;;;-143.93;100.00;62969.28;4992847;28;8816;-66
2022/05/06 11:30:44;;;;;;;;;10.75;9.00;;;;;-143.93;100.00;62969.28;4989100;28;8867;-66
2022/05/06 11:33:24;;;;;;;;;9.50;9.00;;;;;-143.93;100.00;62969.28;5001712;28;8813;-66
2022/05/06 11:35:50;;;;;;;;;10.00;8.25;;;;;-143.93;100.00;62969.28;5002360;28;8905;-66
2022/05/06 11:38:28;;;;;;;;;11.00;10.50;;;;;-143.93;100.00;62969.28;4995621;28;8796;-66
2022/05/06 11:40:54;;;;;;;;;8.25;8.25;;;;;-143.93;100.00;62969.28;4998222;28;8807;-66
2022/05/06 11:43:21;;;;;;;;;9.00;8.75;;;;;-143.93;100.00;62969.28;4991693;28;9714;-67